sensor_id;sensor_type;location;lat;lon;timestamp;P1;durP1;ratioP1;P2;durP2;ratioP2
73100;SDS011;61288;53.446;-2.266;2022-07-11T00:02:10;8.20;;;2.40;;
73100;SDS011;61288;53.446;-2.266;2022-07-11T00:04:42;8.05;;;2.30;;
73100;SDS011;61288;53.446;-2.266;2022-07-11T00:07:12;7.13;;;2.13;;
73100;SDS011;61288;53.446;-2.266;2022-07-11T00:09:38;6.65;;;2.75;;
73100;SDS011;61288;53.446;-2.266;2022-07-11T00:12:07;9.55;;;2.67;;
73100;SDS011;61288;53.446;-2.266;2022-07-11T00:14:34;7.22;;;2.53;;
73100;SDS011;61288;53.446;-2.266;2022-07-11T00:17:03;9.40;;;2.83;;
73100;SDS011;61288;53.446;-2.266;2022-07-11T00:19:29;8.13;;;2.70;;
73100;SDS011;61288;53.446;-2.266;2022-07-11T00:21:54;8.13;;;2.60;;
73100;SDS011;61288;53.446;-2.266;2022-07-11T00:24:20;8.43;;;3.03;;
73100;SDS011;61288;53.446;-2.266;2022-07-11T00:26:47;8.63;;;2.80;;
73100;SDS011;61288;53.446;-2.266;2022-07-11T00:29:14;9.90;;;3.08;;
73100;SDS011;61288;53.446;-2.266;2022-07-11T00:31:42;9.38;;;3.10;;
73100;SDS011;61288;53.446;-2.266;2022-07-11T00:34:08;10.30;;;3.40;;
73100;SDS011;61288;53.446;-2.266;2022-07-11T00:36:34;8.15;;;2.70;;
73100;SDS011;61288;53.446;-2.266;2022-07-11T00:39:00;10.10;;;3.30;;
73100;SDS011;61288;53.446;-2.266;2022-07-11T00:41:27;9.48;;;3.75;;
73100;SDS011;61288;53.446;-2.266;2022-07-11T00:43:57;9.93;;;3.20;;
73100;SDS011;61288;53.446;-2.266;2022-07-11T00:46:24;10.10;;;3.03;;
73100;SDS011;61288;53.446;-2.266;2022-07-11T00:48:51;12.20;;;3.35;;
73100;SDS011;61288;53.446;-2.266;2022-07-11T00:51:20;10.25;;;3.20;;
73100;SDS011;61288;53.446;-2.266;2022-07-11T00:53:50;9.93;;;3.05;;
73100;SDS011;61288;53.446;-2.266;2022-07-11T00:56:22;9.70;;;3.15;;
73100;SDS011;61288;53.446;-2.266;2022-07-11T00:58:52;10.93;;;3.20;;
73100;SDS011;61288;53.446;-2.266;2022-07-11T01:01:21;10.15;;;3.38;;
73100;SDS011;61288;53.446;-2.266;2022-07-11T01:03:48;8.23;;;2.70;;
73100;SDS011;61288;53.446;-2.266;2022-07-11T01:06:14;9.18;;;2.83;;
73100;SDS011;61288;53.446;-2.266;2022-07-11T01:08:40;9.18;;;3.05;;
73100;SDS011;61288;53.446;-2.266;2022-07-11T01:11:09;9.88;;;3.47;;
73100;SDS011;61288;53.446;-2.266;2022-07-11T01:13:38;10.70;;;3.10;;
73100;SDS011;61288;53.446;-2.266;2022-07-11T01:16:08;9.05;;;3.20;;
73100;SDS011;61288;53.446;-2.266;2022-07-11T01:18:40;8.77;;;3.00;;
73100;SDS011;61288;53.446;-2.266;2022-07-11T01:21:17;8.63;;;2.97;;
73100;SDS011;61288;53.446;-2.266;2022-07-11T01:23:47;9.82;;;2.92;;
73100;SDS011;61288;53.446;-2.266;2022-07-11T01:26:14;9.18;;;3.33;;
73100;SDS011;61288;53.446;-2.266;2022-07-11T01:28:42;10.30;;;3.10;;
73100;SDS011;61288;53.446;-2.266;2022-07-11T01:31:08;9.50;;;2.95;;
73100;SDS011;61288;53.446;-2.266;2022-07-11T01:33:33;8.65;;;3.30;;
73100;SDS011;61288;53.446;-2.266;2022-07-11T01:35:59;9.23;;;2.70;;
73100;SDS011;61288;53.446;-2.266;2022-07-11T01:38:27;9.25;;;2.97;;
73100;SDS011;61288;53.446;-2.266;2022-07-11T01:41:05;8.77;;;3.20;;
73100;SDS011;61288;53.446;-2.266;2022-07-11T01:43:32;9.73;;;2.80;;
73100;SDS011;61288;53.446;-2.266;2022-07-11T01:45:58;7.30;;;2.75;;
73100;SDS011;61288;53.446;-2.266;2022-07-11T01:48:23;9.27;;;2.97;;
73100;SDS011;61288;53.446;-2.266;2022-07-11T01:50:49;8.55;;;2.83;;
73100;SDS011;61288;53.446;-2.266;2022-07-11T01:53:15;9.20;;;2.88;;
73100;SDS011;61288;53.446;-2.266;2022-07-11T01:55:41;9.73;;;2.70;;
73100;SDS011;61288;53.446;-2.266;2022-07-11T01:58:07;7.35;;;2.47;;
73100;SDS011;61288;53.446;-2.266;2022-07-11T02:00:33;8.75;;;2.75;;
73100;SDS011;61288;53.446;-2.266;2022-07-11T02:02:58;8.75;;;2.53;;
73100;SDS011;61288;53.446;-2.266;2022-07-11T02:05:24;6.85;;;2.45;;
73100;SDS011;61288;53.446;-2.266;2022-07-11T02:07:50;6.93;;;2.58;;
73100;SDS011;61288;53.446;-2.266;2022-07-11T02:10:34;6.85;;;2.58;;
73100;SDS011;61288;53.446;-2.266;2022-07-11T02:13:00;9.82;;;2.90;;
73100;SDS011;61288;53.446;-2.266;2022-07-11T02:15:26;7.30;;;2.30;;
73100;SDS011;61288;53.446;-2.266;2022-07-11T02:17:53;7.70;;;2.63;;
73100;SDS011;61288;53.446;-2.266;2022-07-11T02:20:19;6.15;;;2.25;;
73100;SDS011;61288;53.446;-2.266;2022-07-11T02:22:45;7.68;;;2.60;;
73100;SDS011;61288;53.446;-2.266;2022-07-11T02:25:12;7.28;;;2.75;;
73100;SDS011;61288;53.446;-2.266;2022-07-11T02:27:37;7.60;;;2.70;;
73100;SDS011;61288;53.446;-2.266;2022-07-11T02:30:03;6.60;;;2.55;;
73100;SDS011;61288;53.446;-2.266;2022-07-11T02:32:30;7.53;;;2.40;;
73100;SDS011;61288;53.446;-2.266;2022-07-11T02:34:55;8.45;;;2.63;;
73100;SDS011;61288;53.446;-2.266;2022-07-11T02:37:21;7.82;;;2.65;;
73100;SDS011;61288;53.446;-2.266;2022-07-11T02:39:47;10.00;;;2.92;;
73100;SDS011;61288;53.446;-2.266;2022-07-11T02:42:12;7.13;;;2.42;;
73100;SDS011;61288;53.446;-2.266;2022-07-11T02:44:38;8.30;;;2.47;;
73100;SDS011;61288;53.446;-2.266;2022-07-11T02:47:05;7.78;;;2.33;;
73100;SDS011;61288;53.446;-2.266;2022-07-11T02:49:31;7.18;;;2.20;;
73100;SDS011;61288;53.446;-2.266;2022-07-11T02:51:57;7.53;;;2.55;;
73100;SDS011;61288;53.446;-2.266;2022-07-11T02:54:23;8.18;;;2.30;;
73100;SDS011;61288;53.446;-2.266;2022-07-11T02:56:49;6.95;;;2.33;;
73100;SDS011;61288;53.446;-2.266;2022-07-11T02:59:15;9.18;;;2.63;;
73100;SDS011;61288;53.446;-2.266;2022-07-11T03:01:40;7.63;;;2.17;;
73100;SDS011;61288;53.446;-2.266;2022-07-11T03:04:09;6.38;;;2.20;;
73100;SDS011;61288;53.446;-2.266;2022-07-11T03:06:36;6.30;;;2.45;;
73100;SDS011;61288;53.446;-2.266;2022-07-11T03:09:04;7.53;;;2.28;;
73100;SDS011;61288;53.446;-2.266;2022-07-11T03:11:30;7.45;;;2.70;;
73100;SDS011;61288;53.446;-2.266;2022-07-11T03:13:57;6.45;;;2.17;;
73100;SDS011;61288;53.446;-2.266;2022-07-11T03:16:24;7.05;;;2.20;;
73100;SDS011;61288;53.446;-2.266;2022-07-11T03:18:49;8.73;;;2.35;;
73100;SDS011;61288;53.446;-2.266;2022-07-11T03:21:15;6.75;;;2.20;;
73100;SDS011;61288;53.446;-2.266;2022-07-11T03:23:41;6.20;;;1.90;;
73100;SDS011;61288;53.446;-2.266;2022-07-11T03:26:06;6.97;;;2.25;;
73100;SDS011;61288;53.446;-2.266;2022-07-11T03:28:32;7.18;;;2.00;;
73100;SDS011;61288;53.446;-2.266;2022-07-11T03:30:57;6.80;;;2.00;;
73100;SDS011;61288;53.446;-2.266;2022-07-11T03:33:23;7.82;;;2.25;;
73100;SDS011;61288;53.446;-2.266;2022-07-11T03:35:49;5.45;;;2.00;;
73100;SDS011;61288;53.446;-2.266;2022-07-11T03:38:17;5.75;;;2.03;;
73100;SDS011;61288;53.446;-2.266;2022-07-11T03:40:44;7.22;;;2.22;;
73100;SDS011;61288;53.446;-2.266;2022-07-11T03:43:10;5.88;;;2.03;;
73100;SDS011;61288;53.446;-2.266;2022-07-11T03:45:37;6.68;;;2.42;;
73100;SDS011;61288;53.446;-2.266;2022-07-11T03:48:03;5.53;;;2.00;;
73100;SDS011;61288;53.446;-2.266;2022-07-11T03:50:29;5.18;;;1.90;;
73100;SDS011;61288;53.446;-2.266;2022-07-11T03:52:55;5.38;;;2.03;;
73100;SDS011;61288;53.446;-2.266;2022-07-11T03:55:21;6.63;;;2.30;;
73100;SDS011;61288;53.446;-2.266;2022-07-11T03:57:47;6.25;;;2.05;;
73100;SDS011;61288;53.446;-2.266;2022-07-11T04:00:13;6.78;;;2.10;;
73100;SDS011;61288;53.446;-2.266;2022-07-11T04:02:39;7.78;;;2.40;;
73100;SDS011;61288;53.446;-2.266;2022-07-11T04:05:05;6.53;;;2.22;;
73100;SDS011;61288;53.446;-2.266;2022-07-11T04:07:31;6.70;;;2.15;;
73100;SDS011;61288;53.446;-2.266;2022-07-11T04:09:57;7.68;;;2.33;;
73100;SDS011;61288;53.446;-2.266;2022-07-11T04:12:23;7.10;;;2.10;;
73100;SDS011;61288;53.446;-2.266;2022-07-11T04:14:48;7.93;;;2.30;;
73100;SDS011;61288;53.446;-2.266;2022-07-11T04:17:14;6.22;;;2.10;;
73100;SDS011;61288;53.446;-2.266;2022-07-11T04:19:40;7.70;;;2.42;;
73100;SDS011;61288;53.446;-2.266;2022-07-11T04:22:09;7.28;;;2.22;;
73100;SDS011;61288;53.446;-2.266;2022-07-11T04:24:34;6.20;;;2.10;;
73100;SDS011;61288;53.446;-2.266;2022-07-11T04:27:00;5.15;;;1.90;;
73100;SDS011;61288;53.446;-2.266;2022-07-11T04:29:26;6.40;;;2.03;;
73100;SDS011;61288;53.446;-2.266;2022-07-11T04:31:52;8.07;;;2.03;;
73100;SDS011;61288;53.446;-2.266;2022-07-11T04:34:18;5.55;;;2.00;;
73100;SDS011;61288;53.446;-2.266;2022-07-11T04:36:44;5.55;;;2.00;;
73100;SDS011;61288;53.446;-2.266;2022-07-11T04:39:10;6.47;;;2.08;;
73100;SDS011;61288;53.446;-2.266;2022-07-11T04:41:35;6.80;;;2.08;;
73100;SDS011;61288;53.446;-2.266;2022-07-11T04:44:01;4.82;;;1.77;;
73100;SDS011;61288;53.446;-2.266;2022-07-11T04:46:29;4.78;;;2.03;;
73100;SDS011;61288;53.446;-2.266;2022-07-11T04:48:57;5.85;;;1.80;;
73100;SDS011;61288;53.446;-2.266;2022-07-11T04:51:23;5.32;;;1.95;;
73100;SDS011;61288;53.446;-2.266;2022-07-11T04:53:50;5.82;;;1.80;;
73100;SDS011;61288;53.446;-2.266;2022-07-11T04:56:16;7.28;;;1.90;;
73100;SDS011;61288;53.446;-2.266;2022-07-11T04:58:41;6.70;;;2.25;;
73100;SDS011;61288;53.446;-2.266;2022-07-11T05:01:08;4.97;;;2.00;;
73100;SDS011;61288;53.446;-2.266;2022-07-11T05:03:33;6.05;;;1.90;;
73100;SDS011;61288;53.446;-2.266;2022-07-11T05:06:00;6.30;;;1.95;;
73100;SDS011;61288;53.446;-2.266;2022-07-11T05:08:26;5.82;;;1.77;;
73100;SDS011;61288;53.446;-2.266;2022-07-11T05:10:52;6.43;;;1.75;;
73100;SDS011;61288;53.446;-2.266;2022-07-11T05:13:17;5.75;;;1.90;;
73100;SDS011;61288;53.446;-2.266;2022-07-11T05:15:43;5.53;;;1.80;;
73100;SDS011;61288;53.446;-2.266;2022-07-11T05:18:09;5.78;;;1.70;;
73100;SDS011;61288;53.446;-2.266;2022-07-11T05:20:35;6.50;;;1.80;;
73100;SDS011;61288;53.446;-2.266;2022-07-11T05:23:01;5.82;;;1.80;;
73100;SDS011;61288;53.446;-2.266;2022-07-11T05:25:27;4.45;;;1.73;;
73100;SDS011;61288;53.446;-2.266;2022-07-11T05:27:53;7.50;;;2.00;;
73100;SDS011;61288;53.446;-2.266;2022-07-11T05:30:19;6.57;;;2.10;;
73100;SDS011;61288;53.446;-2.266;2022-07-11T05:32:45;5.20;;;1.90;;
73100;SDS011;61288;53.446;-2.266;2022-07-11T05:35:11;5.57;;;1.80;;
73100;SDS011;61288;53.446;-2.266;2022-07-11T05:37:37;4.35;;;1.75;;
73100;SDS011;61288;53.446;-2.266;2022-07-11T05:40:03;3.95;;;1.75;;
73100;SDS011;61288;53.446;-2.266;2022-07-11T05:42:30;6.43;;;1.70;;
73100;SDS011;61288;53.446;-2.266;2022-07-11T05:44:56;5.07;;;2.00;;
73100;SDS011;61288;53.446;-2.266;2022-07-11T05:47:22;3.67;;;1.73;;
73100;SDS011;61288;53.446;-2.266;2022-07-11T05:49:48;5.68;;;1.80;;
73100;SDS011;61288;53.446;-2.266;2022-07-11T05:52:13;5.97;;;2.15;;
73100;SDS011;61288;53.446;-2.266;2022-07-11T05:54:39;6.47;;;1.98;;
73100;SDS011;61288;53.446;-2.266;2022-07-11T05:57:05;6.20;;;2.47;;
73100;SDS011;61288;53.446;-2.266;2022-07-11T05:59:31;6.25;;;2.03;;
73100;SDS011;61288;53.446;-2.266;2022-07-11T06:01:57;5.35;;;2.20;;
73100;SDS011;61288;53.446;-2.266;2022-07-11T06:04:23;6.22;;;2.33;;
73100;SDS011;61288;53.446;-2.266;2022-07-11T06:06:48;6.43;;;2.00;;
73100;SDS011;61288;53.446;-2.266;2022-07-11T06:09:15;8.93;;;2.30;;
73100;SDS011;61288;53.446;-2.266;2022-07-11T06:11:41;7.07;;;2.30;;
73100;SDS011;61288;53.446;-2.266;2022-07-11T06:14:07;5.88;;;2.22;;
73100;SDS011;61288;53.446;-2.266;2022-07-11T06:16:32;6.55;;;2.22;;
73100;SDS011;61288;53.446;-2.266;2022-07-11T06:19:00;7.15;;;2.33;;
73100;SDS011;61288;53.446;-2.266;2022-07-11T06:21:25;6.35;;;2.45;;
73100;SDS011;61288;53.446;-2.266;2022-07-11T06:23:52;7.03;;;2.45;;
73100;SDS011;61288;53.446;-2.266;2022-07-11T06:26:18;7.32;;;2.35;;
73100;SDS011;61288;53.446;-2.266;2022-07-11T06:28:44;6.70;;;2.25;;
73100;SDS011;61288;53.446;-2.266;2022-07-11T06:31:10;9.07;;;2.30;;
73100;SDS011;61288;53.446;-2.266;2022-07-11T06:33:36;9.23;;;2.70;;
73100;SDS011;61288;53.446;-2.266;2022-07-11T06:36:02;6.93;;;2.60;;
73100;SDS011;61288;53.446;-2.266;2022-07-11T06:38:29;7.82;;;2.60;;
73100;SDS011;61288;53.446;-2.266;2022-07-11T06:40:56;8.57;;;3.00;;
73100;SDS011;61288;53.446;-2.266;2022-07-11T06:43:22;7.10;;;2.97;;
73100;SDS011;61288;53.446;-2.266;2022-07-11T06:45:48;7.07;;;2.20;;
73100;SDS011;61288;53.446;-2.266;2022-07-11T06:48:14;8.85;;;2.67;;
73100;SDS011;61288;53.446;-2.266;2022-07-11T06:50:40;9.68;;;2.60;;
73100;SDS011;61288;53.446;-2.266;2022-07-11T06:53:06;7.40;;;2.50;;
73100;SDS011;61288;53.446;-2.266;2022-07-11T06:55:35;8.52;;;2.88;;
73100;SDS011;61288;53.446;-2.266;2022-07-11T06:58:01;8.13;;;2.88;;
73100;SDS011;61288;53.446;-2.266;2022-07-11T07:00:27;8.02;;;3.03;;
73100;SDS011;61288;53.446;-2.266;2022-07-11T07:02:56;9.18;;;2.83;;
73100;SDS011;61288;53.446;-2.266;2022-07-11T07:05:25;8.35;;;2.63;;
73100;SDS011;61288;53.446;-2.266;2022-07-11T07:07:51;7.85;;;2.60;;
73100;SDS011;61288;53.446;-2.266;2022-07-11T07:10:17;6.85;;;2.63;;
73100;SDS011;61288;53.446;-2.266;2022-07-11T07:12:45;6.95;;;2.22;;
73100;SDS011;61288;53.446;-2.266;2022-07-11T07:15:11;7.63;;;2.50;;
73100;SDS011;61288;53.446;-2.266;2022-07-11T07:17:39;7.13;;;2.72;;
73100;SDS011;61288;53.446;-2.266;2022-07-11T07:20:05;9.70;;;3.15;;
73100;SDS011;61288;53.446;-2.266;2022-07-11T07:22:34;8.18;;;3.00;;
73100;SDS011;61288;53.446;-2.266;2022-07-11T07:25:00;11.15;;;2.85;;
73100;SDS011;61288;53.446;-2.266;2022-07-11T07:27:26;8.15;;;3.03;;
73100;SDS011;61288;53.446;-2.266;2022-07-11T07:29:51;9.93;;;2.80;;
73100;SDS011;61288;53.446;-2.266;2022-07-11T07:32:17;9.20;;;2.97;;
73100;SDS011;61288;53.446;-2.266;2022-07-11T07:34:43;7.72;;;2.47;;
73100;SDS011;61288;53.446;-2.266;2022-07-11T07:37:09;8.60;;;2.60;;
73100;SDS011;61288;53.446;-2.266;2022-07-11T07:39:34;7.35;;;2.53;;
73100;SDS011;61288;53.446;-2.266;2022-07-11T07:42:00;7.70;;;2.72;;
73100;SDS011;61288;53.446;-2.266;2022-07-11T07:44:26;8.90;;;2.80;;
73100;SDS011;61288;53.446;-2.266;2022-07-11T07:46:52;8.57;;;2.60;;
73100;SDS011;61288;53.446;-2.266;2022-07-11T07:49:18;6.72;;;2.53;;
73100;SDS011;61288;53.446;-2.266;2022-07-11T07:51:44;10.60;;;2.83;;
73100;SDS011;61288;53.446;-2.266;2022-07-11T07:54:10;6.20;;;2.40;;
73100;SDS011;61288;53.446;-2.266;2022-07-11T07:56:35;6.35;;;2.42;;
73100;SDS011;61288;53.446;-2.266;2022-07-11T07:59:01;8.27;;;2.50;;
73100;SDS011;61288;53.446;-2.266;2022-07-11T08:01:27;7.03;;;2.50;;
73100;SDS011;61288;53.446;-2.266;2022-07-11T08:04:06;8.55;;;2.63;;
73100;SDS011;61288;53.446;-2.266;2022-07-11T08:06:35;6.78;;;2.70;;
73100;SDS011;61288;53.446;-2.266;2022-07-11T08:09:02;6.75;;;2.30;;
73100;SDS011;61288;53.446;-2.266;2022-07-11T08:11:29;6.53;;;2.53;;
73100;SDS011;61288;53.446;-2.266;2022-07-11T08:13:55;6.80;;;2.70;;
73100;SDS011;61288;53.446;-2.266;2022-07-11T08:16:21;7.78;;;3.03;;
73100;SDS011;61288;53.446;-2.266;2022-07-11T08:18:46;7.25;;;2.80;;
73100;SDS011;61288;53.446;-2.266;2022-07-11T08:21:12;7.63;;;2.47;;
73100;SDS011;61288;53.446;-2.266;2022-07-11T08:23:38;7.47;;;2.35;;
73100;SDS011;61288;53.446;-2.266;2022-07-11T08:26:04;5.85;;;2.10;;
73100;SDS011;61288;53.446;-2.266;2022-07-11T08:28:30;6.40;;;2.38;;
73100;SDS011;61288;53.446;-2.266;2022-07-11T08:30:56;8.82;;;2.88;;
73100;SDS011;61288;53.446;-2.266;2022-07-11T08:33:22;6.88;;;2.72;;
73100;SDS011;61288;53.446;-2.266;2022-07-11T08:35:48;8.68;;;2.70;;
73100;SDS011;61288;53.446;-2.266;2022-07-11T08:38:14;7.20;;;2.75;;
73100;SDS011;61288;53.446;-2.266;2022-07-11T08:40:42;7.85;;;2.80;;
73100;SDS011;61288;53.446;-2.266;2022-07-11T08:43:13;8.07;;;2.50;;
73100;SDS011;61288;53.446;-2.266;2022-07-11T08:45:40;9.07;;;3.17;;
73100;SDS011;61288;53.446;-2.266;2022-07-11T08:48:06;9.93;;;2.83;;
73100;SDS011;61288;53.446;-2.266;2022-07-11T08:50:34;10.40;;;2.92;;
73100;SDS011;61288;53.446;-2.266;2022-07-11T08:53:00;9.38;;;3.17;;
73100;SDS011;61288;53.446;-2.266;2022-07-11T08:55:29;8.90;;;2.78;;
73100;SDS011;61288;53.446;-2.266;2022-07-11T08:57:55;8.40;;;2.72;;
73100;SDS011;61288;53.446;-2.266;2022-07-11T09:00:21;11.85;;;3.30;;
73100;SDS011;61288;53.446;-2.266;2022-07-11T09:02:48;9.05;;;2.92;;
73100;SDS011;61288;53.446;-2.266;2022-07-11T09:05:14;8.70;;;2.80;;
73100;SDS011;61288;53.446;-2.266;2022-07-11T09:07:44;9.52;;;3.28;;
73100;SDS011;61288;53.446;-2.266;2022-07-11T09:10:15;9.30;;;2.90;;
73100;SDS011;61288;53.446;-2.266;2022-07-11T09:12:58;8.80;;;3.30;;
73100;SDS011;61288;53.446;-2.266;2022-07-11T09:15:32;9.73;;;3.05;;
73100;SDS011;61288;53.446;-2.266;2022-07-11T09:18:06;9.13;;;3.28;;
73100;SDS011;61288;53.446;-2.266;2022-07-11T09:20:53;8.52;;;2.70;;
73100;SDS011;61288;53.446;-2.266;2022-07-11T09:23:38;7.18;;;2.38;;
73100;SDS011;61288;53.446;-2.266;2022-07-11T09:26:29;5.53;;;1.90;;
73100;SDS011;61288;53.446;-2.266;2022-07-11T09:29:00;4.57;;;1.80;;
73100;SDS011;61288;53.446;-2.266;2022-07-11T09:31:31;6.72;;;2.10;;
73100;SDS011;61288;53.446;-2.266;2022-07-11T09:36:34;8.63;;;2.25;;
73100;SDS011;61288;53.446;-2.266;2022-07-11T09:39:02;5.47;;;2.03;;
73100;SDS011;61288;53.446;-2.266;2022-07-11T09:41:35;6.78;;;2.00;;
73100;SDS011;61288;53.446;-2.266;2022-07-11T09:44:10;4.45;;;1.73;;
73100;SDS011;61288;53.446;-2.266;2022-07-11T09:46:37;6.47;;;1.90;;
73100;SDS011;61288;53.446;-2.266;2022-07-11T09:49:04;5.40;;;2.10;;
73100;SDS011;61288;53.446;-2.266;2022-07-11T09:51:30;5.03;;;1.90;;
73100;SDS011;61288;53.446;-2.266;2022-07-11T09:53:57;5.72;;;2.10;;
73100;SDS011;61288;53.446;-2.266;2022-07-11T09:58:59;5.28;;;1.63;;
73100;SDS011;61288;53.446;-2.266;2022-07-11T10:01:26;6.20;;;1.73;;
73100;SDS011;61288;53.446;-2.266;2022-07-11T10:03:54;4.45;;;1.77;;
73100;SDS011;61288;53.446;-2.266;2022-07-11T10:06:23;3.80;;;1.60;;
73100;SDS011;61288;53.446;-2.266;2022-07-11T10:08:52;6.05;;;2.03;;
73100;SDS011;61288;53.446;-2.266;2022-07-11T10:11:21;4.80;;;1.60;;
73100;SDS011;61288;53.446;-2.266;2022-07-11T10:13:47;5.68;;;1.85;;
73100;SDS011;61288;53.446;-2.266;2022-07-11T10:16:20;4.85;;;1.58;;
73100;SDS011;61288;53.446;-2.266;2022-07-11T10:19:02;7.35;;;1.83;;
73100;SDS011;61288;53.446;-2.266;2022-07-11T10:21:56;4.72;;;1.70;;
73100;SDS011;61288;53.446;-2.266;2022-07-11T10:30:51;4.30;;;1.75;;
73100;SDS011;61288;53.446;-2.266;2022-07-11T10:33:21;5.88;;;2.00;;
73100;SDS011;61288;53.446;-2.266;2022-07-11T10:35:48;3.60;;;1.77;;
73100;SDS011;61288;53.446;-2.266;2022-07-11T10:38:15;5.63;;;1.98;;
73100;SDS011;61288;53.446;-2.266;2022-07-11T10:40:45;4.93;;;1.90;;
73100;SDS011;61288;53.446;-2.266;2022-07-11T10:43:13;9.70;;;1.98;;
73100;SDS011;61288;53.446;-2.266;2022-07-11T10:46:08;7.80;;;2.00;;
73100;SDS011;61288;53.446;-2.266;2022-07-11T10:48:52;4.18;;;1.80;;
73100;SDS011;61288;53.446;-2.266;2022-07-11T10:57:25;6.07;;;1.85;;
73100;SDS011;61288;53.446;-2.266;2022-07-11T11:00:03;4.05;;;1.50;;
73100;SDS011;61288;53.446;-2.266;2022-07-11T11:10:59;5.75;;;1.83;;
73100;SDS011;61288;53.446;-2.266;2022-07-11T11:13:26;5.60;;;1.77;;
73100;SDS011;61288;53.446;-2.266;2022-07-11T11:15:54;4.63;;;2.10;;
73100;SDS011;61288;53.446;-2.266;2022-07-11T11:26:04;3.83;;;1.80;;
73100;SDS011;61288;53.446;-2.266;2022-07-11T11:28:30;7.13;;;1.80;;
73100;SDS011;61288;53.446;-2.266;2022-07-11T11:30:56;3.25;;;1.63;;
73100;SDS011;61288;53.446;-2.266;2022-07-11T11:33:27;5.55;;;2.17;;
73100;SDS011;61288;53.446;-2.266;2022-07-11T11:36:04;4.45;;;2.00;;
73100;SDS011;61288;53.446;-2.266;2022-07-11T11:38:33;4.70;;;1.92;;
73100;SDS011;61288;53.446;-2.266;2022-07-11T11:41:00;4.05;;;1.80;;
73100;SDS011;61288;53.446;-2.266;2022-07-11T11:43:26;5.07;;;1.90;;
73100;SDS011;61288;53.446;-2.266;2022-07-11T11:45:54;5.57;;;1.90;;
73100;SDS011;61288;53.446;-2.266;2022-07-11T11:48:30;4.00;;;1.98;;
73100;SDS011;61288;53.446;-2.266;2022-07-11T11:51:04;5.00;;;1.73;;
73100;SDS011;61288;53.446;-2.266;2022-07-11T11:53:35;6.47;;;2.00;;
73100;SDS011;61288;53.446;-2.266;2022-07-11T11:59:04;5.22;;;1.75;;
73100;SDS011;61288;53.446;-2.266;2022-07-11T12:01:45;7.65;;;1.88;;
73100;SDS011;61288;53.446;-2.266;2022-07-11T12:04:13;5.88;;;2.10;;
73100;SDS011;61288;53.446;-2.266;2022-07-11T12:06:45;3.15;;;1.60;;
73100;SDS011;61288;53.446;-2.266;2022-07-11T12:09:18;4.05;;;1.50;;
73100;SDS011;61288;53.446;-2.266;2022-07-11T12:11:48;3.10;;;1.70;;
73100;SDS011;61288;53.446;-2.266;2022-07-11T12:14:33;3.90;;;1.42;;
73100;SDS011;61288;53.446;-2.266;2022-07-11T12:16:59;5.00;;;1.52;;
73100;SDS011;61288;53.446;-2.266;2022-07-11T12:19:32;4.43;;;2.00;;
73100;SDS011;61288;53.446;-2.266;2022-07-11T12:22:03;2.83;;;1.50;;
73100;SDS011;61288;53.446;-2.266;2022-07-11T12:24:29;4.60;;;1.70;;
73100;SDS011;61288;53.446;-2.266;2022-07-11T12:26:56;4.03;;;1.55;;
73100;SDS011;61288;53.446;-2.266;2022-07-11T12:29:22;4.38;;;1.92;;
73100;SDS011;61288;53.446;-2.266;2022-07-11T12:34:25;4.03;;;1.60;;
73100;SDS011;61288;53.446;-2.266;2022-07-11T12:37:07;4.93;;;1.85;;
73100;SDS011;61288;53.446;-2.266;2022-07-11T12:39:39;4.05;;;1.60;;
73100;SDS011;61288;53.446;-2.266;2022-07-11T12:42:26;3.88;;;1.80;;
73100;SDS011;61288;53.446;-2.266;2022-07-11T12:44:59;5.90;;;1.88;;
73100;SDS011;61288;53.446;-2.266;2022-07-11T12:47:33;4.07;;;1.70;;
73100;SDS011;61288;53.446;-2.266;2022-07-11T12:50:17;3.33;;;1.67;;
73100;SDS011;61288;53.446;-2.266;2022-07-11T12:52:48;2.35;;;1.40;;
73100;SDS011;61288;53.446;-2.266;2022-07-11T12:55:32;4.70;;;1.60;;
73100;SDS011;61288;53.446;-2.266;2022-07-11T12:58:10;4.78;;;1.60;;
73100;SDS011;61288;53.446;-2.266;2022-07-11T13:00:56;4.22;;;1.50;;
73100;SDS011;61288;53.446;-2.266;2022-07-11T13:03:27;3.70;;;1.55;;
73100;SDS011;61288;53.446;-2.266;2022-07-11T13:05:55;6.50;;;1.75;;
73100;SDS011;61288;53.446;-2.266;2022-07-11T13:08:24;5.38;;;1.67;;
73100;SDS011;61288;53.446;-2.266;2022-07-11T13:11:11;4.80;;;1.55;;
73100;SDS011;61288;53.446;-2.266;2022-07-11T13:13:40;4.55;;;1.60;;
73100;SDS011;61288;53.446;-2.266;2022-07-11T13:16:06;4.38;;;1.70;;
73100;SDS011;61288;53.446;-2.266;2022-07-11T13:18:33;2.67;;;1.52;;
73100;SDS011;61288;53.446;-2.266;2022-07-11T13:21:00;5.47;;;1.92;;
73100;SDS011;61288;53.446;-2.266;2022-07-11T13:23:26;5.10;;;1.80;;
73100;SDS011;61288;53.446;-2.266;2022-07-11T13:25:53;4.65;;;1.80;;
73100;SDS011;61288;53.446;-2.266;2022-07-11T13:28:19;6.82;;;1.85;;
73100;SDS011;61288;53.446;-2.266;2022-07-11T13:30:45;3.38;;;1.40;;
73100;SDS011;61288;53.446;-2.266;2022-07-11T13:33:12;4.57;;;1.58;;
73100;SDS011;61288;53.446;-2.266;2022-07-11T13:35:39;10.63;;;1.95;;
73100;SDS011;61288;53.446;-2.266;2022-07-11T13:38:05;4.60;;;1.83;;
73100;SDS011;61288;53.446;-2.266;2022-07-11T13:40:31;2.63;;;1.70;;
73100;SDS011;61288;53.446;-2.266;2022-07-11T13:42:58;6.85;;;1.90;;
73100;SDS011;61288;53.446;-2.266;2022-07-11T13:45:25;4.15;;;1.80;;
73100;SDS011;61288;53.446;-2.266;2022-07-11T13:47:52;3.53;;;1.45;;
73100;SDS011;61288;53.446;-2.266;2022-07-11T13:50:18;5.43;;;1.70;;
73100;SDS011;61288;53.446;-2.266;2022-07-11T13:52:47;3.05;;;1.50;;
73100;SDS011;61288;53.446;-2.266;2022-07-11T13:55:18;3.50;;;1.48;;
73100;SDS011;61288;53.446;-2.266;2022-07-11T13:57:45;3.72;;;1.60;;
73100;SDS011;61288;53.446;-2.266;2022-07-11T14:00:15;2.80;;;1.52;;
73100;SDS011;61288;53.446;-2.266;2022-07-11T14:02:41;4.30;;;1.40;;
73100;SDS011;61288;53.446;-2.266;2022-07-11T14:05:07;6.45;;;1.80;;
73100;SDS011;61288;53.446;-2.266;2022-07-11T14:07:34;6.82;;;1.95;;
73100;SDS011;61288;53.446;-2.266;2022-07-11T14:10:01;4.90;;;1.55;;
73100;SDS011;61288;53.446;-2.266;2022-07-11T14:12:29;4.20;;;1.80;;
73100;SDS011;61288;53.446;-2.266;2022-07-11T14:14:56;4.90;;;1.80;;
73100;SDS011;61288;53.446;-2.266;2022-07-11T14:17:22;5.55;;;2.00;;
73100;SDS011;61288;53.446;-2.266;2022-07-11T14:19:50;4.57;;;1.70;;
73100;SDS011;61288;53.446;-2.266;2022-07-11T14:22:17;4.18;;;1.80;;
73100;SDS011;61288;53.446;-2.266;2022-07-11T14:24:43;4.20;;;1.90;;
73100;SDS011;61288;53.446;-2.266;2022-07-11T14:27:09;6.20;;;1.85;;
73100;SDS011;61288;53.446;-2.266;2022-07-11T14:29:35;3.55;;;1.70;;
73100;SDS011;61288;53.446;-2.266;2022-07-11T14:32:01;3.78;;;1.88;;
73100;SDS011;61288;53.446;-2.266;2022-07-11T14:34:27;3.88;;;1.50;;
73100;SDS011;61288;53.446;-2.266;2022-07-11T14:36:54;3.70;;;1.70;;
73100;SDS011;61288;53.446;-2.266;2022-07-11T14:39:20;3.15;;;1.63;;
73100;SDS011;61288;53.446;-2.266;2022-07-11T14:41:46;4.28;;;1.90;;
73100;SDS011;61288;53.446;-2.266;2022-07-11T14:44:12;3.55;;;1.40;;
73100;SDS011;61288;53.446;-2.266;2022-07-11T14:46:39;3.20;;;1.80;;
73100;SDS011;61288;53.446;-2.266;2022-07-11T14:49:05;5.60;;;1.58;;
73100;SDS011;61288;53.446;-2.266;2022-07-11T14:51:32;5.28;;;1.58;;
73100;SDS011;61288;53.446;-2.266;2022-07-11T14:53:58;4.97;;;1.60;;
73100;SDS011;61288;53.446;-2.266;2022-07-11T14:56:24;6.28;;;1.73;;
73100;SDS011;61288;53.446;-2.266;2022-07-11T14:58:50;4.13;;;1.60;;
73100;SDS011;61288;53.446;-2.266;2022-07-11T15:01:15;5.40;;;1.80;;
73100;SDS011;61288;53.446;-2.266;2022-07-11T15:03:41;5.68;;;1.75;;
73100;SDS011;61288;53.446;-2.266;2022-07-11T15:06:13;5.10;;;1.70;;
73100;SDS011;61288;53.446;-2.266;2022-07-11T15:08:40;3.35;;;1.45;;
73100;SDS011;61288;53.446;-2.266;2022-07-11T15:11:25;3.33;;;1.67;;
73100;SDS011;61288;53.446;-2.266;2022-07-11T15:14:10;3.60;;;1.48;;
73100;SDS011;61288;53.446;-2.266;2022-07-11T15:16:39;4.32;;;1.60;;
73100;SDS011;61288;53.446;-2.266;2022-07-11T15:19:05;4.72;;;1.75;;